Terminal Aerodrome Forecast
Issued by NWS

Home | Current Version | Previous Version | Text Only | Print | Product List | Glossary On
Versions: 1 2 3 4 5 6 7 8 9 10 11 12 13 14 15 16 17 18
133
FTUS44 KBMX 200659 AAA
TAFANB
TAF AMD
KANB 200659Z 2007/2106 00000KT 1/2SM FG VV003
      TEMPO 2007/2011 1/4SM FG VV002
     FM201330 00000KT 2SM BR BKN004
     FM201500 27005KT P6SM SCT050=

USA.gov is the U.S. government's official web portal to all federal, state and local government web resources and services.